Time;durP1;ratioP1;P1;durP2;ratioP2;P2;SDS_P1;SDS_P2;PMS_P1;PMS_P2;Temp;Humidity;BMP_temperature;BMP_pressure;BME280_temperature;BME280_humidity;BME280_pressure;Samples;Min_cycle;Max_cycle;Signal;HPM_P1;HPM_P2
2024/04/11 00:00:53;;;;;;;4.50;3.13;;;;;;;2.79;100.00;99982.50;6107508;19;20019;-69
2024/04/11 00:02:53;;;;;;;5.65;3.20;;;;;;;2.74;100.00;99988.03;6107440;19;20010;-69
2024/04/11 00:04:54;;;;;;;14.20;3.80;;;;;;;2.77;100.00;99984.72;6107952;19;20104;-69
2024/04/11 00:06:54;;;;;;;6.85;3.92;;;;;;;2.81;100.00;99979.47;6106461;19;20007;-68
2024/04/11 00:08:54;;;;;;;7.20;3.75;;;;;;;2.75;100.00;99984.19;6105567;19;20003;-69
2024/04/11 00:10:56;;;;;;;5.65;3.40;;;;;;;2.72;100.00;99984.75;6106982;19;20021;-68
2024/04/11 00:12:56;;;;;;;5.35;2.90;;;;;;;2.74;100.00;99973.56;6107024;19;20461;-69
2024/04/11 00:14:56;;;;;;;8.50;3.47;;;;;;;2.75;100.00;99976.00;6107299;19;20006;-69
2024/04/11 00:16:58;;;;;;;6.75;3.38;;;;;;;2.74;100.00;99974.38;6104220;19;20003;-68
2024/04/11 00:18:58;;;;;;;8.80;2.88;;;;;;;2.69;100.00;99977.16;6105437;19;20003;-68
2024/04/11 00:20:59;;;;;;;5.72;3.25;;;;;;;2.62;100.00;99973.94;6106461;19;20343;-69
2024/04/11 00:22:59;;;;;;;9.43;3.75;;;;;;;2.60;100.00;99975.34;6112348;19;20010;-69
2024/04/11 00:24:59;;;;;;;8.50;3.10;;;;;;;2.57;100.00;99967.75;6111507;19;20029;-69
2024/04/11 00:27:00;;;;;;;6.20;3.30;;;;;;;2.55;100.00;99965.28;6112201;19;20009;-69
2024/04/11 00:29:01;;;;;;;5.82;3.38;;;;;;;2.54;100.00;99969.94;6111386;19;20102;-69
2024/04/11 00:31:02;;;;;;;7.80;3.42;;;;;;;2.50;100.00;99974.34;6112705;19;20010;-69
2024/04/11 00:33:02;;;;;;;6.47;3.40;;;;;;;2.46;100.00;99967.81;6111562;19;20303;-69
2024/04/11 00:35:04;;;;;;;5.32;3.25;;;;;;;2.47;100.00;99963.16;6111600;19;20019;-69
2024/04/11 00:37:05;;;;;;;7.13;3.53;;;;;;;2.43;100.00;99964.84;6112272;19;20511;-69
2024/04/11 00:39:05;;;;;;;13.43;3.75;;;;;;;2.30;100.00;99965.53;6111077;19;20006;-68
2024/04/11 00:41:05;;;;;;;10.75;3.60;;;;;;;2.25;100.00;99963.66;6106264;19;20003;-69
2024/04/11 00:43:14;;;;;;;6.85;3.35;;;;;;;2.17;100.00;99964.28;6106932;19;20006;-69
2024/04/11 00:45:15;;;;;;;6.93;3.25;;;;;;;2.20;100.00;99964.50;6105706;19;20030;-69
2024/04/11 00:47:15;;;;;;;8.48;3.42;;;;;;;2.17;100.00;99967.00;6104578;19;20114;-69
2024/04/11 00:49:17;;;;;;;8.27;4.22;;;;;;;2.23;100.00;99966.69;6104944;19;20494;-69
2024/04/11 00:51:18;;;;;;;4.68;3.33;;;;;;;2.28;100.00;99970.47;6105494;19;20006;-69
2024/04/11 00:53:21;;;;;;;7.95;3.08;;;;;;;2.21;100.00;99977.06;6105742;19;20467;-68
2024/04/11 00:55:22;;;;;;;7.15;3.40;;;;;;;2.22;100.00;99970.50;6105704;19;20038;-70
2024/04/11 00:57:24;;;;;;;5.95;3.22;;;;;;;2.21;100.00;99968.88;6104678;19;20006;-70
2024/04/11 00:59:24;;;;;;;9.63;3.85;;;;;;;2.22;100.00;99959.56;6103968;19;20378;-69
2024/04/11 01:01:25;;;;;;;7.13;3.80;;;;;;;2.24;100.00;99971.03;6105591;19;20454;-69
2024/04/11 01:03:26;;;;;;;5.22;3.03;;;;;;;2.15;100.00;99975.50;6104850;19;20371;-69
2024/04/11 01:05:27;;;;;;;7.13;4.05;;;;;;;2.05;100.00;99967.38;6104418;19;20622;-69
2024/04/11 01:07:27;;;;;;;6.15;3.50;;;;;;;2.04;100.00;99964.94;6104462;19;20002;-70
2024/04/11 01:09:27;;;;;;;4.43;2.75;;;;;;;2.07;100.00;99978.84;6103772;19;20009;-69
2024/04/11 01:11:28;;;;;;;7.32;3.90;;;;;;;2.10;100.00;99971.97;6104544;19;20469;-69
2024/04/11 01:13:29;;;;;;;5.78;3.38;;;;;;;2.13;100.00;99974.94;6103969;19;20030;-69
2024/04/11 01:15:29;;;;;;;7.20;3.05;;;;;;;2.15;100.00;99971.91;6104674;19;20577;-69
2024/04/11 01:17:30;;;;;;;5.30;3.35;;;;;;;2.08;100.00;99966.81;6103443;19;20003;-69
2024/04/11 01:19:30;;;;;;;6.93;3.58;;;;;;;1.99;100.00;99960.34;6103591;19;20006;-69
2024/04/11 01:21:31;;;;;;;5.20;3.25;;;;;;;1.98;100.00;99967.69;6104345;19;20008;-69
2024/04/11 01:23:31;;;;;;;5.47;3.35;;;;;;;1.95;100.00;99957.34;6104770;19;20250;-69
2024/04/11 01:25:31;;;;;;;5.97;3.22;;;;;;;2.00;100.00;99958.41;6104241;19;20078;-69
2024/04/11 01:27:32;;;;;;;6.65;3.03;;;;;;;1.92;100.00;99948.94;6104203;19;20479;-70
2024/04/11 01:29:32;;;;;;;6.60;3.35;;;;;;;1.94;100.00;99960.38;6103041;19;19999;-70
2024/04/11 01:31:36;;;;;;;8.15;3.35;;;;;;;1.88;100.00;99954.13;6104867;19;20483;-70
2024/04/11 01:33:38;;;;;;;7.28;3.67;;;;;;;1.92;100.00;99951.66;6103512;19;20003;-69
2024/04/11 01:35:38;;;;;;;5.10;3.78;;;;;;;1.91;100.00;99950.84;6104736;19;20057;-69
2024/04/11 01:37:38;;;;;;;5.55;3.47;;;;;;;1.90;100.00;99954.69;6103207;19;20451;-69
2024/04/11 01:39:39;;;;;;;7.00;3.05;;;;;;;1.85;100.00;99943.78;6102805;19;20462;-69
2024/04/11 01:41:39;;;;;;;6.63;3.00;;;;;;;1.84;100.00;99950.34;6110357;19;20006;-70
2024/04/11 01:43:40;;;;;;;6.18;3.20;;;;;;;1.81;100.00;99952.81;6111583;19;19998;-69
2024/04/11 01:45:41;;;;;;;7.07;3.40;;;;;;;1.80;100.00;99951.19;6110779;19;20019;-69
2024/04/11 01:47:42;;;;;;;5.10;3.35;;;;;;;1.73;100.00;99945.22;6110161;19;19999;-69
2024/04/11 01:49:43;;;;;;;7.05;3.80;;;;;;;1.74;100.00;99944.13;6109826;19;20011;-69
2024/04/11 01:51:43;;;;;;;7.85;3.95;;;;;;;1.74;100.00;99950.44;6111148;19;20058;-69
2024/04/11 01:53:45;;;;;;;5.15;3.20;;;;;;;1.71;100.00;99941.97;6110882;19;20005;-69
2024/04/11 01:55:47;;;;;;;7.00;3.22;;;;;;;1.68;100.00;99949.63;6111051;19;20082;-69
2024/04/11 01:57:48;;;;;;;;;;;;;;;1.63;100.00;99960.56;6110386;19;20355;-69
2024/04/11 01:59:48;;;;;;;6.75;3.10;;;;;;;1.52;100.00;99959.03;6109969;19;19910;-69
2024/04/11 02:01:48;;;;;;;5.68;3.42;;;;;;;1.40;100.00;99948.44;6110097;19;20450;-69
2024/04/11 02:03:49;;;;;;;7.18;3.20;;;;;;;1.36;100.00;99962.94;6111204;19;20046;-69
2024/04/11 02:05:49;;;;;;;5.70;3.33;;;;;;;1.36;100.00;99957.47;6109630;19;20061;-69
2024/04/11 02:07:49;;;;;;;4.63;3.20;;;;;;;1.30;100.00;99961.31;6110434;19;20313;-69
2024/04/11 02:09:51;;;;;;;6.82;3.33;;;;;;;1.29;100.00;99967.88;6109142;19;20029;-69
2024/04/11 02:11:53;;;;;;;8.23;3.88;;;;;;;1.33;100.00;99966.22;6110919;19;20003;-69
2024/04/11 02:13:53;;;;;;;3.72;2.80;;;;;;;1.31;100.00;99973.84;6108443;19;20294;-69
2024/04/11 02:15:56;;;;;;;6.80;3.00;;;;;;;1.26;100.00;99980.16;6110600;19;20022;-69
2024/04/11 02:17:58;;;;;;;4.88;3.45;;;;;;;1.17;100.00;99970.13;6109540;19;20014;-69
2024/04/11 02:19:59;;;;;;;4.97;3.40;;;;;;;1.12;100.00;99979.13;6110453;19;20038;-70
2024/04/11 02:21:59;;;;;;;6.43;2.90;;;;;;;1.07;100.00;99971.78;6109402;19;20099;-69
2024/04/11 02:24:00;;;;;;;7.25;2.95;;;;;;;1.06;100.00;99972.06;6109792;19;20006;-69
2024/04/11 02:26:01;;;;;;;8.20;3.20;;;;;;;1.05;100.00;99973.97;6109768;19;20027;-69
2024/04/11 02:28:03;;;;;;;5.05;3.47;;;;;;;1.15;100.00;99980.47;6108691;19;20514;-70
2024/04/11 02:30:05;;;;;;;6.10;3.58;;;;;;;1.05;100.00;99982.16;6108746;19;20010;-70
2024/04/11 02:32:05;;;;;;;4.88;2.92;;;;;;;1.00;100.00;99986.81;6109939;19;20022;-70
2024/04/11 02:34:06;;;;;;;7.00;3.28;;;;;;;0.98;100.00;99994.44;6109391;19;19998;-70
2024/04/11 02:36:08;;;;;;;6.70;3.10;;;;;;;0.96;100.00;99992.00;6108786;19;20463;-70
2024/04/11 02:38:08;;;;;;;5.28;3.17;;;;;;;0.96;100.00;99993.91;6108478;19;20396;-69
2024/04/11 02:40:09;;;;;;;4.80;2.90;;;;;;;0.92;100.00;99990.94;6108467;19;20426;-70
2024/04/11 02:42:10;;;;;;;4.78;2.80;;;;;;;0.89;100.00;99991.47;6109543;19;20925;-70
2024/04/11 02:44:10;;;;;;;7.15;3.08;;;;;;;0.90;100.00;99990.38;6107803;19;20010;-70
2024/04/11 02:46:15;;;;;;;6.30;3.08;;;;;;;0.95;100.00;99990.38;6109012;19;20518;-70
2024/04/11 02:48:15;;;;;;;5.05;2.83;;;;;;;0.96;100.00;99992.00;6109075;19;20006;-70
2024/04/11 02:50:16;;;;;;;6.00;3.17;;;;;;;0.99;100.00;99987.91;6107388;19;20444;-69
2024/04/11 02:52:17;;;;;;;4.07;3.03;;;;;;;1.03;100.00;99995.25;6110396;19;20034;-69
2024/04/11 02:54:17;;;;;;;7.10;2.88;;;;;;;0.98;100.00;99989.00;6109826;19;20006;-69
2024/04/11 02:56:18;;;;;;;6.13;3.20;;;;;;;0.99;100.00;99985.16;6109284;19;20009;-70
2024/04/11 02:58:19;;;;;;;5.30;2.72;;;;;;;0.91;100.00;99993.91;6108977;19;20667;-69
2024/04/11 03:00:20;;;;;;;5.97;2.83;;;;;;;0.83;100.00;99995.34;6109129;19;20028;-69
2024/04/11 03:02:28;;;;;;;5.50;2.88;;;;;;;0.74;100.00;99991.50;6109645;19;20010;-70
2024/04/11 03:04:29;;;;;;;8.02;3.55;;;;;;;0.65;100.00;99995.91;6109645;19;20073;-70
2024/04/11 03:06:31;;;;;;;3.50;2.47;;;;;;;0.61;100.00;100005.72;6109324;19;20006;-70
2024/04/11 03:08:31;;;;;;;6.95;3.33;;;;;;;0.54;100.00;100001.38;6109989;19;20024;-69
2024/04/11 03:10:31;;;;;;;5.82;2.67;;;;;;;0.48;100.00;100005.19;6107654;19;20006;-69
2024/04/11 03:12:32;;;;;;;5.20;3.03;;;;;;;0.44;100.00;99992.41;6109378;19;20454;-69
2024/04/11 03:14:32;;;;;;;6.35;2.70;;;;;;;0.45;100.00;99994.03;6109453;19;20006;-69
2024/04/11 03:16:32;;;;;;;6.13;2.50;;;;;;;0.41;100.00;99998.38;6109304;19;20410;-69
2024/04/11 03:18:36;;;;;;;6.32;2.60;;;;;;;0.40;100.00;99999.47;6108018;19;20042;-69
2024/04/11 03:20:36;;;;;;;4.97;3.35;;;;;;;0.37;100.00;99994.59;6109742;19;20362;-69
2024/04/11 03:22:36;;;;;;;4.95;3.05;;;;;;;0.42;100.00;99994.59;6109086;19;20006;-69
2024/04/11 03:24:38;;;;;;;5.95;3.03;;;;;;;0.48;100.00;99998.91;6109157;19;20011;-69
2024/04/11 03:26:41;;;;;;;6.35;2.60;;;;;;;0.47;100.00;100006.28;6108975;19;20032;-69
2024/04/11 03:28:44;;;;;;;4.70;2.75;;;;;;;0.51;100.00;100003.84;6108041;19;20015;-69
2024/04/11 03:31:04;;;;;;;4.35;3.03;;;;;;;0.48;100.00;100001.66;6109145;19;20003;-69
2024/04/11 03:33:05;;;;;;;6.80;2.72;;;;;;;0.39;100.00;100012.28;6108893;19;20007;-69
2024/04/11 03:35:08;;;;;;;5.30;2.67;;;;;;;0.30;100.00;100010.38;6108504;19;20017;-69
2024/04/11 03:37:09;;;;;;;5.95;3.05;;;;;;;0.26;100.00;100012.84;6109342;19;20406;-69
2024/04/11 03:39:12;;;;;;;7.32;3.13;;;;;;;0.22;100.00;100012.56;6106903;19;20692;-69
2024/04/11 03:41:13;;;;;;;9.38;3.10;;;;;;;0.21;100.00;100005.47;6107582;19;20010;-69
2024/04/11 03:43:13;;;;;;;6.05;2.97;;;;;;;0.19;100.00;99999.50;6108762;19;20403;-69
2024/04/11 03:45:22;;;;;;;8.45;2.95;;;;;;;0.26;100.00;99994.59;6109132;19;20028;-69
2024/04/11 03:47:22;;;;;;;6.28;3.05;;;;;;;0.30;100.00;100000.31;6107519;19;20094;-69
2024/04/11 03:49:23;;;;;;;6.97;2.90;;;;;;;0.25;100.00;100001.13;6107654;19;20755;-69
2024/04/11 03:51:27;;;;;;;5.38;2.95;;;;;;;0.23;100.00;100006.03;6109220;19;20015;-69
2024/04/11 03:53:27;;;;;;;7.90;3.15;;;;;;;0.21;100.00;100012.84;6108266;19;20053;-69
2024/04/11 03:55:28;;;;;;;7.57;3.00;;;;;;;0.27;100.00;100015.28;6107999;19;20010;-69
2024/04/11 03:57:28;;;;;;;9.15;3.95;;;;;;;0.23;100.00;100019.63;6105337;19;20031;-69
2024/04/11 03:59:28;;;;;;;7.72;2.85;;;;;;;0.18;100.00;100010.66;6107664;19;20377;-69
2024/04/11 04:01:30;;;;;;;4.35;3.00;;;;;;;0.15;100.00;100011.19;6108841;19;20015;-69
2024/04/11 04:03:30;;;;;;;9.38;3.38;;;;;;;0.14;100.00;100015.81;6108055;19;20009;-69
2024/04/11 04:05:31;;;;;;;6.80;3.05;;;;;;;0.17;100.00;100011.75;6107338;19;20340;-69
2024/04/11 04:07:32;;;;;;;10.13;3.47;;;;;;;0.16;100.00;100000.03;6106357;19;20031;-69
2024/04/11 04:09:32;;;;;;;5.68;2.75;;;;;;;0.15;100.00;100014.72;6106778;19;20010;-69
2024/04/11 04:11:32;;;;;;;8.90;3.50;;;;;;;0.14;100.00;100015.00;6107966;19;20007;-69
2024/04/11 04:13:33;;;;;;;4.32;3.03;;;;;;;0.18;100.00;100013.38;6108249;19;20003;-69
2024/04/11 04:15:34;;;;;;;9.60;3.10;;;;;;;0.18;100.00;100021.56;6107956;19;20002;-69
2024/04/11 04:17:34;;;;;;;5.72;3.25;;;;;;;0.16;100.00;100023.72;6106133;19;20090;-69
2024/04/11 04:19:34;;;;;;;9.20;3.30;;;;;;;0.16;100.00;100024.53;6107558;19;20447;-69
2024/04/11 04:21:35;;;;;;;5.90;2.78;;;;;;;0.16;100.00;100029.97;6106413;19;20013;-69
2024/04/11 04:23:35;;;;;;;6.15;3.15;;;;;;;0.15;100.00;100025.63;6108337;19;20327;-69
2024/04/11 04:25:39;;;;;;;9.55;3.10;;;;;;;0.24;100.00;100032.16;6107023;19;20020;-69
2024/04/11 04:27:39;;;;;;;4.30;2.65;;;;;;;0.24;100.00;100023.97;6106038;19;20318;-69
2024/04/11 04:29:40;;;;;;;5.07;2.72;;;;;;;0.20;100.00;100028.34;6105658;19;20003;-69
2024/04/11 04:31:42;;;;;;;6.45;3.17;;;;;;;0.20;100.00;100027.53;6107111;19;19999;-69
2024/04/11 04:33:47;;;;;;;5.53;2.72;;;;;;;0.21;100.00;100027.25;6105946;19;20482;-69
2024/04/11 04:35:47;;;;;;;8.73;3.13;;;;;;;0.17;100.00;100034.34;6106238;19;20006;-69
2024/04/11 04:37:48;;;;;;;5.10;2.80;;;;;;;0.17;100.00;100034.34;6105548;19;20415;-69
2024/04/11 04:39:49;;;;;;;5.97;2.97;;;;;;;0.11;100.00;100029.97;6097008;19;20070;-69
2024/04/11 04:41:50;;;;;;;7.95;3.13;;;;;;;0.10;100.00;100033.78;6106490;19;20580;-69
2024/04/11 04:43:53;;;;;;;6.55;2.67;;;;;;;0.13;100.00;100038.69;6106624;19;20019;-69
2024/04/11 04:45:56;;;;;;;6.90;2.95;;;;;;;0.06;100.00;100037.31;6106638;19;20054;-69
2024/04/11 04:47:58;;;;;;;6.85;2.83;;;;;;;0.04;100.00;100043.03;6105382;19;20040;-69
2024/04/11 04:49:59;;;;;;;6.78;2.92;;;;;;;0.02;100.00;100034.34;6106185;19;20606;-69
2024/04/11 04:52:00;;;;;;;6.78;3.08;;;;;;;0.04;100.00;100043.03;6106944;19;20011;-69
2024/04/11 04:54:01;;;;;;;4.20;2.88;;;;;;;0.07;100.00;100028.88;6105611;19;19995;-69
2024/04/11 04:56:03;;;;;;;5.03;2.58;;;;;;;0.16;100.00;100045.47;6106902;19;20827;-70
2024/04/11 04:58:03;;;;;;;5.43;2.90;;;;;;;0.27;100.00;100033.53;6106446;19;20074;-70
2024/04/11 05:00:13;;;;;;;12.80;4.57;;;;;;;0.30;100.00;100032.16;6105339;19;20471;-70
2024/04/11 05:02:14;;;;;;;7.90;3.10;;;;;;;0.29;100.00;100039.50;6106031;19;20023;-69
2024/04/11 05:04:14;;;;;;;7.75;3.33;;;;;;;0.24;100.00;100053.09;6105488;19;20007;-69
2024/04/11 05:06:14;;;;;;;8.07;3.22;;;;;;;0.31;100.00;100048.22;6106551;19;20067;-69
2024/04/11 05:08:15;;;;;;;8.00;2.70;;;;;;;0.34;100.00;100050.41;6106808;19;20066;-69
2024/04/11 05:10:15;;;;;;;4.43;2.65;;;;;;;0.32;100.00;100051.75;6110366;19;20006;-69
2024/04/11 05:12:16;;;;;;;4.95;3.03;;;;;;;0.33;100.00;100051.47;6111846;19;20046;-69
2024/04/11 05:14:16;;;;;;;12.63;4.20;;;;;;;0.38;100.00;100053.41;6111442;19;20325;-69
2024/04/11 05:16:20;;;;;;;5.97;2.97;;;;;;;0.43;100.00;100056.94;6110782;19;20007;-69
2024/04/11 05:18:20;;;;;;;8.55;3.45;;;;;;;0.52;100.00;100054.50;6111503;19;20049;-69
2024/04/11 05:20:27;;;;;;;6.32;3.28;;;;;;;0.65;100.00;100053.09;6111072;19;20034;-69
2024/04/11 05:22:27;;;;;;;5.38;3.17;;;;;;;0.76;100.00;100060.19;6111868;19;20019;-69
2024/04/11 05:24:27;;;;;;;3.83;2.80;;;;;;;0.86;100.00;100062.88;6110648;19;20424;-69
2024/04/11 05:26:28;;;;;;;4.53;2.70;;;;;;;0.92;100.00;100059.06;6111766;19;20014;-69
2024/04/11 05:28:35;;;;;;;5.95;3.00;;;;;;;0.99;100.00;100054.13;6111122;19;20010;-69
2024/04/11 05:30:39;;;;;;;6.18;2.90;;;;;;;1.03;100.00;100057.13;6111881;19;20013;-69
2024/04/11 05:32:43;;;;;;;7.97;3.13;;;;;;;1.09;100.00;100056.84;6111505;19;20010;-69
2024/04/11 05:34:44;;;;;;;8.20;3.33;;;;;;;1.16;100.00;100067.47;6109543;19;20005;-69
2024/04/11 05:36:44;;;;;;;6.25;3.20;;;;;;;1.21;100.00;100059.25;6109334;19;20085;-69
2024/04/11 05:38:46;;;;;;;7.60;3.35;;;;;;;1.25;100.00;100060.34;6107415;19;20015;-69
2024/04/11 05:40:46;;;;;;;9.38;3.75;;;;;;;1.29;100.00;100055.94;6104703;19;20111;-69
2024/04/11 05:42:48;;;;;;;8.10;3.33;;;;;;;1.37;100.00;100062.75;6102736;19;20032;-69
2024/04/11 05:44:48;;;;;;;7.13;3.47;;;;;;;1.46;100.00;100060.25;6102497;19;20018;-69
2024/04/11 05:46:48;;;;;;;5.32;3.13;;;;;;;1.52;100.00;100065.41;6102265;19;20495;-69
2024/04/11 05:48:50;;;;;;;4.53;3.03;;;;;;;1.64;100.00;100063.16;6099228;19;20323;-69
2024/04/11 05:50:54;;;;;;;5.78;2.72;;;;;;;1.71;100.00;100045.66;6103827;19;20006;-69
2024/04/11 05:52:54;;;;;;;6.70;3.38;;;;;;;1.81;100.00;100048.31;6104474;19;20002;-69
2024/04/11 05:54:54;;;;;;;5.72;2.90;;;;;;;1.92;100.00;100048.00;6104483;19;20296;-69
2024/04/11 05:56:56;;;;;;;6.53;3.22;;;;;;;1.97;100.00;100045.22;6104196;19;20483;-69
2024/04/11 05:58:56;;;;;;;8.18;3.28;;;;;;;2.03;100.00;100043.28;6102299;19;20015;-69
2024/04/11 06:01:00;;;;;;;5.13;3.00;;;;;;;2.07;100.00;100038.06;6102713;19;20002;-69
2024/04/11 06:03:08;;;;;;;5.82;3.53;;;;;;;2.16;100.00;100036.38;6103849;19;20379;-69
2024/04/11 06:05:08;;;;;;;6.45;3.13;;;;;;;2.26;100.00;100039.03;6103476;19;20010;-69
2024/04/11 06:07:08;;;;;;;7.68;3.25;;;;;;;2.32;100.00;100037.06;6103300;19;20030;-69
2024/04/11 06:09:09;;;;;;;8.55;3.83;;;;;;;2.40;100.00;100034.56;6102525;19;20011;-69
2024/04/11 06:11:10;;;;;;;5.07;3.30;;;;;;;2.45;100.00;100034.50;6102539;19;20011;-69
2024/04/11 06:13:12;;;;;;;4.65;3.20;;;;;;;2.52;100.00;100039.63;6103887;19;20011;-69
2024/04/11 06:15:13;;;;;;;7.53;3.97;;;;;;;2.54;100.00;100042.88;6102844;19;19998;-69
2024/04/11 06:17:13;;;;;;;6.18;3.35;;;;;;;2.58;100.00;100043.97;6102402;19;20366;-69
2024/04/11 06:19:14;;;;;;;8.02;3.63;;;;;;;2.69;100.00;100044.66;6099093;19;20006;-69
2024/04/11 06:21:18;;;;;;;9.82;3.35;;;;;;;2.77;100.00;100044.84;6102648;19;20477;-69
2024/04/11 06:23:19;;;;;;;5.03;3.10;;;;;;;2.85;100.00;100048.88;6102353;19;20391;-69
2024/04/11 06:25:20;;;;;;;5.72;3.53;;;;;;;2.91;100.00;100047.75;6102941;19;20003;-69
2024/04/11 06:27:20;;;;;;;5.15;3.47;;;;;;;3.01;100.00;100047.63;6100221;19;20035;-69
2024/04/11 06:29:22;;;;;;;5.05;2.92;;;;;;;3.08;100.00;100048.09;6101846;19;20006;-69
2024/04/11 06:31:28;;;;;;;5.32;3.15;;;;;;;3.20;100.00;100055.88;6101425;19;20110;-69
2024/04/11 06:33:31;;;;;;;5.00;3.10;;;;;;;3.32;100.00;100053.56;6102269;19;20007;-69
2024/04/11 06:35:33;;;;;;;7.32;3.42;;;;;;;3.47;100.00;100051.72;6101378;19;20323;-69
2024/04/11 06:37:33;;;;;;;5.18;3.58;;;;;;;3.60;100.00;100056.50;6100389;19;19995;-69
2024/04/11 06:39:34;;;;;;;4.65;3.58;;;;;;;3.70;100.00;100059.09;6100283;19;20002;-69
2024/04/11 06:41:35;;;;;;;7.07;3.15;;;;;;;3.83;100.00;100054.84;6109355;19;20006;-69
2024/04/11 06:43:41;;;;;;;5.78;3.88;;;;;;;3.93;100.00;100052.75;6108940;19;20007;-69
2024/04/11 06:45:43;;;;;;;4.93;3.55;;;;;;;4.06;100.00;100055.88;6109255;19;20030;-69
2024/04/11 06:47:43;;;;;;;8.53;3.80;;;;;;;4.15;100.00;100054.91;6108802;19;20355;-69
2024/04/11 06:49:43;;;;;;;8.50;4.10;;;;;;;4.26;100.00;100052.00;6107449;19;20263;-69
2024/04/11 06:51:44;;;;;;;7.82;4.28;;;;;;;4.38;100.00;100057.84;6108828;19;20014;-69
2024/04/11 06:53:44;;;;;;;6.57;3.90;;;;;;;4.47;100.00;100042.38;6109033;19;20002;-69
2024/04/11 06:55:46;;;;;;;7.63;3.40;;;;;;;4.65;100.00;100046.16;6108608;19;20038;-69
2024/04/11 06:57:46;;;;;;;7.07;4.00;;;;;;;4.76;100.00;100044.88;6108035;19;20350;-69
2024/04/11 06:59:49;;;;;;;6.35;3.85;;;;;;;4.87;100.00;100051.78;6107185;19;20014;-69
2024/04/11 07:01:51;;;;;;;5.65;3.22;;;;;;;4.99;100.00;100046.63;6109474;19;20015;-69
2024/04/11 07:03:53;;;;;;;7.82;4.18;;;;;;;5.09;100.00;100040.16;6108152;19;20065;-69
2024/04/11 07:05:55;;;;;;;7.22;3.60;;;;;;;5.23;100.00;100040.16;6107977;19;20546;-69
2024/04/11 07:07:55;;;;;;;8.82;4.10;;;;;;;5.40;100.00;100048.59;6105936;19;20014;-69
2024/04/11 07:09:57;;;;;;;8.25;4.32;;;;;;;5.56;100.00;100043.59;6108217;19;20011;-69
2024/04/11 07:11:58;;;;;;;10.18;4.30;;;;;;;5.73;100.00;100042.97;6108869;19;20013;-69
2024/04/11 07:14:01;;;;;;;13.70;5.40;;;;;;;5.87;100.00;100041.81;6109418;19;20062;-69
2024/04/11 07:16:06;;;;;;;7.53;3.67;;;;;;;6.01;100.00;100046.50;6108545;19;20449;-69
2024/04/11 07:18:14;;;;;;;10.45;4.00;;;;;;;6.10;100.00;100041.88;6108083;19;20006;-69
2024/04/11 07:20:25;;;;;;;4.85;4.10;;;;;;;6.23;100.00;100043.78;6108044;19;19999;-69
2024/04/11 07:22:28;;;;;;;6.97;3.70;;;;;;;6.38;100.00;100042.59;6109104;19;20007;-69
2024/04/11 07:24:28;;;;;;;5.47;3.70;;;;;;;6.52;100.00;100048.84;6109443;19;20014;-69
2024/04/11 07:26:31;;;;;;;7.50;3.60;;;;;;;6.70;100.00;100045.09;6107894;19;20463;-69
2024/04/11 07:28:31;;;;;;;4.75;3.35;;;;;;;6.94;100.00;100043.91;6106734;19;20014;-69
2024/04/11 07:30:32;;;;;;;5.80;3.30;;;;;;;7.10;100.00;100031.38;6105390;19;20066;-69
2024/04/11 07:32:33;;;;;;;6.25;2.95;;;;;;;7.23;100.00;100041.47;6107468;19;20017;-69
2024/04/11 07:34:33;;;;;;;4.78;2.90;;;;;;;7.36;100.00;100036.16;6107267;19;20418;-69
2024/04/11 07:36:39;;;;;;;11.23;3.65;;;;;;;7.52;100.00;100040.91;6107950;19;20014;-69
2024/04/11 07:38:40;;;;;;;8.13;3.15;;;;;;;7.64;100.00;100045.00;6107111;19;20002;-69
2024/04/11 07:40:54;;;;;;;4.53;2.50;;;;;;;7.72;100.00;100038.72;6109176;19;20009;-69
2024/04/11 07:42:56;;;;;;;5.15;2.70;;;;;;;7.91;100.00;100041.97;6108641;19;20014;-69
2024/04/11 07:44:56;;;;;;;3.63;1.70;;;;;;;8.24;100.00;100036.81;6108444;19;20086;-69
2024/04/11 07:46:58;;;;;;;5.80;1.90;;;;;;;8.70;100.00;100038.91;6108847;19;20010;-69
2024/04/11 07:48:59;;;;;;;3.97;1.92;;;;;;;9.05;100.00;100032.47;6107313;19;20070;-69
2024/04/11 07:51:02;;;;;;;3.88;1.75;;;;;;;9.24;100.00;100044.75;6109037;19;20406;-69
2024/04/11 07:53:06;;;;;;;;;;;;;;;9.63;100.00;100042.78;6109823;19;20022;-69
2024/04/11 07:55:07;;;;;;;5.15;1.48;;;;;;;10.00;99.41;100043.03;6108784;19;19911;-69
2024/04/11 07:57:08;;;;;;;2.75;1.35;;;;;;;10.20;93.49;100041.44;6107789;19;20003;-69
2024/04/11 07:59:11;;;;;;;3.88;1.65;;;;;;;10.25;93.10;100041.25;6105146;19;20002;-69
2024/04/11 08:01:14;;;;;;;2.95;1.50;;;;;;;10.36;93.14;100037.75;6107375;19;20002;-69
2024/04/11 08:03:16;;;;;;;3.33;1.30;;;;;;;10.64;87.54;100051.81;6108865;19;20002;-69
2024/04/11 08:05:17;;;;;;;1.70;1.00;;;;;;;10.77;86.85;100049.09;6108874;19;20324;-69
2024/04/11 08:07:17;;;;;;;10.23;2.53;;;;;;;10.82;86.78;100043.31;6107531;19;20006;-69
2024/04/11 08:09:17;;;;;;;2.15;1.10;;;;;;;10.86;84.89;100044.28;6106975;19;20003;-69
2024/04/11 08:11:19;;;;;;;5.65;1.52;;;;;;;10.89;83.90;100054.66;6108041;19;20359;-69
2024/04/11 08:13:22;;;;;;;4.28;1.30;;;;;;;10.96;85.82;100038.28;6107509;19;20778;-69
2024/04/11 08:15:22;;;;;;;2.83;1.50;;;;;;;11.00;88.83;100041.16;6107965;19;20014;-69
2024/04/11 08:17:22;;;;;;;1.88;1.00;;;;;;;11.15;82.07;100041.31;6106424;19;20007;-69
2024/04/11 08:19:23;;;;;;;5.30;1.50;;;;;;;11.34;81.57;100039.97;6108610;19;20010;-69
2024/04/11 08:21:24;;;;;;;3.40;1.00;;;;;;;11.52;77.71;100038.59;6106962;19;20013;-69
2024/04/11 08:23:25;;;;;;;3.47;1.40;;;;;;;11.73;78.49;100042.03;6107733;19;20010;-69
2024/04/11 08:25:25;;;;;;;2.53;1.40;;;;;;;11.86;75.71;100050.38;6108021;19;20043;-69
2024/04/11 08:27:27;;;;;;;3.53;1.50;;;;;;;11.94;80.63;100052.22;6107383;19;20011;-69
2024/04/11 08:29:27;;;;;;;2.85;1.27;;;;;;;11.90;79.34;100054.06;6106870;19;20023;-69
2024/04/11 08:31:29;;;;;;;4.00;1.50;;;;;;;11.90;72.34;100048.53;6107485;19;20013;-69
2024/04/11 08:33:29;;;;;;;6.07;1.87;;;;;;;11.86;74.70;100050.38;6107594;19;20013;-69
2024/04/11 08:35:32;;;;;;;3.97;1.33;;;;;;;11.81;76.62;100043.09;6107338;19;20471;-69
2024/04/11 08:37:35;;;;;;;4.95;1.38;;;;;;;11.86;75.92;100061.47;6106888;19;20015;-69
2024/04/11 08:39:37;;;;;;;5.20;1.50;;;;;;;11.92;77.60;100060.09;6106670;19;20011;-69
2024/04/11 08:41:38;;;;;;;4.35;1.40;;;;;;;12.01;73.80;100066.31;6107804;19;20003;-69
2024/04/11 08:43:45;;;;;;;2.67;1.17;;;;;;;12.01;71.20;100077.41;6111074;19;20003;-69
2024/04/11 08:45:46;;;;;;;4.68;1.23;;;;;;;12.13;71.84;100077.38;6111984;19;20337;-69
2024/04/11 08:47:47;;;;;;;5.07;1.40;;;;;;;12.26;73.18;100070.66;6111740;19;20019;-69
2024/04/11 08:49:47;;;;;;;4.70;1.20;;;;;;;12.32;73.38;100065.66;6109915;19;20455;-69
2024/04/11 08:51:50;;;;;;;4.03;1.65;;;;;;;12.38;71.63;100078.94;6108026;19;20066;-69
2024/04/11 08:53:54;;;;;;;7.13;1.75;;;;;;;12.47;70.29;100073.25;6108550;19;19999;-69
2024/04/11 08:55:57;;;;;;;4.13;1.40;;;;;;;12.56;73.85;100073.09;6107071;19;20491;-69
2024/04/11 08:57:58;;;;;;;;;;;;;;;12.59;70.26;100078.78;6110758;19;20006;-69
2024/04/11 09:00:01;;;;;;;3.10;1.20;;;;;;;12.68;73.75;100070.28;6108888;19;19919;-69
2024/04/11 09:02:04;;;;;;;3.13;1.20;;;;;;;12.82;76.90;100069.88;6111276;19;20033;-70
2024/04/11 09:04:04;;;;;;;2.30;1.20;;;;;;;12.89;72.66;100078.41;6110274;19;20022;-70
2024/04/11 09:06:08;;;;;;;2.75;1.27;;;;;;;12.91;71.54;100082.47;6108775;19;20007;-70
2024/04/11 09:08:11;;;;;;;4.03;1.50;;;;;;;13.06;68.91;100089.19;6108130;19;20115;-70
2024/04/11 09:10:12;;;;;;;2.00;1.00;;;;;;;13.07;68.90;100081.66;6108818;19;20981;-70
2024/04/11 09:12:14;;;;;;;6.50;1.60;;;;;;;13.12;78.57;100079.44;6109152;19;20011;-70
2024/04/11 09:14:15;;;;;;;3.25;1.55;;;;;;;13.28;69.14;100076.72;6111174;19;20011;-70
2024/04/11 09:16:21;;;;;;;2.28;1.40;;;;;;;13.34;71.10;100075.28;6110383;19;20002;-70
2024/04/11 09:18:24;;;;;;;6.85;1.50;;;;;;;13.38;67.16;100076.16;6110901;19;20014;-69
2024/04/11 09:20:24;;;;;;;3.75;1.38;;;;;;;13.56;72.82;100079.41;6110206;19;20014;-69
2024/04/11 09:22:25;;;;;;;5.20;1.40;;;;;;;13.59;64.69;100072.31;6110459;19;20043;-69
2024/04/11 09:24:25;;;;;;;4.45;1.25;;;;;;;13.64;66.65;100072.03;6110132;19;20011;-70
2024/04/11 09:26:27;;;;;;;4.03;1.40;;;;;;;13.72;64.10;100071.03;6110930;19;20014;-69
2024/04/11 09:28:28;;;;;;;4.47;1.23;;;;;;;13.86;67.71;100079.75;6110181;19;20010;-70